sensor_id;sensor_type;location;lat;lon;timestamp;noise_LAeq;noise_LA_min;noise_LA_max;noise_LA01;noise_LA95
66399;Laerm;54877;51.504;3.894;2024-02-23T00:02:21;35.42;33.91;42.33;;
66399;Laerm;54877;51.504;3.894;2024-02-23T00:04:46;35.74;34.05;41.97;;
66399;Laerm;54877;51.504;3.894;2024-02-23T00:07:12;35.59;33.93;41.08;;
66399;Laerm;54877;51.504;3.894;2024-02-23T00:09:37;37.26;33.74;55.69;;
66399;Laerm;54877;51.504;3.894;2024-02-23T00:12:03;36.16;34.24;54.11;;
66399;Laerm;54877;51.504;3.894;2024-02-23T00:14:31;36.62;34.32;50.01;;
66399;Laerm;54877;51.504;3.894;2024-02-23T00:16:57;37.02;34.44;52.53;;
66399;Laerm;54877;51.504;3.894;2024-02-23T00:19:24;35.71;34.08;40.96;;
66399;Laerm;54877;51.504;3.894;2024-02-23T00:21:50;35.73;34.22;40.16;;
66399;Laerm;54877;51.504;3.894;2024-02-23T00:24:16;35.81;34.07;45.44;;
66399;Laerm;54877;51.504;3.894;2024-02-23T00:26:43;36.95;34.33;59.37;;
66399;Laerm;54877;51.504;3.894;2024-02-23T00:29:08;36.65;34.29;47.30;;
66399;Laerm;54877;51.504;3.894;2024-02-23T00:31:34;36.35;34.21;51.83;;
66399;Laerm;54877;51.504;3.894;2024-02-23T00:34:01;49.58;34.14;68.75;;
66399;Laerm;54877;51.504;3.894;2024-02-23T00:36:26;36.94;34.35;48.47;;
66399;Laerm;54877;51.504;3.894;2024-02-23T00:38:51;35.96;34.24;47.10;;
66399;Laerm;54877;51.504;3.894;2024-02-23T00:41:17;36.41;34.14;51.38;;
66399;Laerm;54877;51.504;3.894;2024-02-23T00:43:42;36.38;34.28;50.83;;
66399;Laerm;54877;51.504;3.894;2024-02-23T00:46:08;35.91;34.19;45.63;;
66399;Laerm;54877;51.504;3.894;2024-02-23T00:48:33;35.86;34.23;43.15;;
66399;Laerm;54877;51.504;3.894;2024-02-23T00:50:59;35.97;34.10;43.07;;
66399;Laerm;54877;51.504;3.894;2024-02-23T00:53:24;36.30;34.07;49.11;;
66399;Laerm;54877;51.504;3.894;2024-02-23T00:55:49;35.92;34.26;40.27;;
66399;Laerm;54877;51.504;3.894;2024-02-23T00:58:14;35.82;34.31;42.96;;
66399;Laerm;54877;51.504;3.894;2024-02-23T01:00:41;35.69;33.97;43.66;;
66399;Laerm;54877;51.504;3.894;2024-02-23T01:03:07;35.78;34.16;48.68;;
66399;Laerm;54877;51.504;3.894;2024-02-23T01:05:32;35.43;34.04;41.65;;
66399;Laerm;54877;51.504;3.894;2024-02-23T01:07:57;35.36;33.88;38.41;;
66399;Laerm;54877;51.504;3.894;2024-02-23T01:10:23;35.63;33.89;50.24;;
66399;Laerm;54877;51.504;3.894;2024-02-23T01:12:48;35.43;33.95;40.50;;
66399;Laerm;54877;51.504;3.894;2024-02-23T01:15:14;35.49;33.90;45.68;;
66399;Laerm;54877;51.504;3.894;2024-02-23T01:17:39;35.62;33.96;44.10;;
66399;Laerm;54877;51.504;3.894;2024-02-23T01:20:05;35.47;33.70;48.02;;
66399;Laerm;54877;51.504;3.894;2024-02-23T01:22:30;35.57;33.87;43.83;;
66399;Laerm;54877;51.504;3.894;2024-02-23T01:24:56;35.37;33.83;37.37;;
66399;Laerm;54877;51.504;3.894;2024-02-23T01:27:21;35.33;33.91;37.29;;
66399;Laerm;54877;51.504;3.894;2024-02-23T01:29:47;35.51;33.76;39.15;;
66399;Laerm;54877;51.504;3.894;2024-02-23T01:32:12;35.64;34.03;43.90;;
66399;Laerm;54877;51.504;3.894;2024-02-23T01:34:38;35.77;33.92;43.57;;
66399;Laerm;54877;51.504;3.894;2024-02-23T01:37:03;35.78;34.09;41.44;;
66399;Laerm;54877;51.504;3.894;2024-02-23T01:39:29;35.67;34.14;42.50;;
66399;Laerm;54877;51.504;3.894;2024-02-23T01:41:54;36.95;34.25;53.88;;
66399;Laerm;54877;51.504;3.894;2024-02-23T01:44:20;35.79;34.19;46.15;;
66399;Laerm;54877;51.504;3.894;2024-02-23T01:46:46;35.60;34.01;37.95;;
66399;Laerm;54877;51.504;3.894;2024-02-23T01:49:12;35.48;33.91;39.12;;
66399;Laerm;54877;51.504;3.894;2024-02-23T01:51:38;35.44;33.98;37.01;;
66399;Laerm;54877;51.504;3.894;2024-02-23T01:54:03;35.93;34.01;41.68;;
66399;Laerm;54877;51.504;3.894;2024-02-23T01:56:29;35.51;33.81;38.13;;
66399;Laerm;54877;51.504;3.894;2024-02-23T01:58:55;35.70;33.94;44.67;;
66399;Laerm;54877;51.504;3.894;2024-02-23T02:01:21;35.70;33.87;44.91;;
66399;Laerm;54877;51.504;3.894;2024-02-23T02:03:46;35.39;33.96;43.83;;
66399;Laerm;54877;51.504;3.894;2024-02-23T02:06:12;35.59;34.04;39.58;;
66399;Laerm;54877;51.504;3.894;2024-02-23T02:08:38;35.87;33.99;46.27;;
66399;Laerm;54877;51.504;3.894;2024-02-23T02:11:03;35.82;34.22;42.93;;
66399;Laerm;54877;51.504;3.894;2024-02-23T02:13:29;35.69;33.81;38.71;;
66399;Laerm;54877;51.504;3.894;2024-02-23T02:15:55;35.84;34.20;40.31;;
66399;Laerm;54877;51.504;3.894;2024-02-23T02:18:20;35.87;34.32;45.42;;
66399;Laerm;54877;51.504;3.894;2024-02-23T02:20:51;35.65;34.23;38.50;;
66399;Laerm;54877;51.504;3.894;2024-02-23T02:23:20;35.58;34.10;37.83;;
66399;Laerm;54877;51.504;3.894;2024-02-23T02:25:45;36.67;34.19;45.98;;
66399;Laerm;54877;51.504;3.894;2024-02-23T02:28:17;36.07;34.07;51.23;;
66399;Laerm;54877;51.504;3.894;2024-02-23T02:30:43;37.12;34.59;47.75;;
66399;Laerm;54877;51.504;3.894;2024-02-23T02:33:08;36.22;34.51;42.20;;
66399;Laerm;54877;51.504;3.894;2024-02-23T02:35:33;36.01;34.45;40.66;;
66399;Laerm;54877;51.504;3.894;2024-02-23T02:37:59;36.30;34.58;47.78;;
66399;Laerm;54877;51.504;3.894;2024-02-23T02:40:24;36.44;34.39;42.20;;
66399;Laerm;54877;51.504;3.894;2024-02-23T02:42:50;35.98;34.56;43.48;;
66399;Laerm;54877;51.504;3.894;2024-02-23T02:45:15;36.55;34.41;46.05;;
66399;Laerm;54877;51.504;3.894;2024-02-23T02:47:41;36.63;34.57;45.22;;
66399;Laerm;54877;51.504;3.894;2024-02-23T02:50:06;36.51;34.62;43.44;;
66399;Laerm;54877;51.504;3.894;2024-02-23T02:52:32;36.07;34.69;40.22;;
66399;Laerm;54877;51.504;3.894;2024-02-23T02:54:57;36.01;34.23;47.54;;
66399;Laerm;54877;51.504;3.894;2024-02-23T02:57:23;37.02;34.37;48.74;;
66399;Laerm;54877;51.504;3.894;2024-02-23T02:59:48;37.59;34.93;44.13;;
66399;Laerm;54877;51.504;3.894;2024-02-23T03:02:15;36.93;34.49;46.71;;
66399;Laerm;54877;51.504;3.894;2024-02-23T03:07:52;38.01;34.80;51.83;;
66399;Laerm;54877;51.504;3.894;2024-02-23T03:10:18;37.02;34.88;49.60;;
66399;Laerm;54877;51.504;3.894;2024-02-23T03:12:43;36.86;34.65;46.58;;
66399;Laerm;54877;51.504;3.894;2024-02-23T03:15:09;37.47;34.77;60.33;;
66399;Laerm;54877;51.504;3.894;2024-02-23T03:17:37;37.14;34.86;62.23;;
66399;Laerm;54877;51.504;3.894;2024-02-23T03:20:03;36.42;34.77;42.52;;
66399;Laerm;54877;51.504;3.894;2024-02-23T03:22:36;36.38;34.72;46.01;;
66399;Laerm;54877;51.504;3.894;2024-02-23T03:25:03;36.42;34.62;44.83;;
66399;Laerm;54877;51.504;3.894;2024-02-23T03:27:33;36.33;34.69;48.93;;
66399;Laerm;54877;51.504;3.894;2024-02-23T03:29:59;36.17;34.54;45.41;;
66399;Laerm;54877;51.504;3.894;2024-02-23T03:32:24;36.20;34.54;47.52;;
66399;Laerm;54877;51.504;3.894;2024-02-23T03:34:50;37.23;34.72;54.89;;
66399;Laerm;54877;51.504;3.894;2024-02-23T03:37:15;38.12;34.61;70.09;;
66399;Laerm;54877;51.504;3.894;2024-02-23T03:39:40;37.02;34.48;53.26;;
66399;Laerm;54877;51.504;3.894;2024-02-23T03:42:06;36.27;34.61;53.79;;
66399;Laerm;54877;51.504;3.894;2024-02-23T03:44:31;36.84;34.83;46.04;;
66399;Laerm;54877;51.504;3.894;2024-02-23T03:46:56;36.92;34.57;52.24;;
66399;Laerm;54877;51.504;3.894;2024-02-23T03:49:22;36.81;34.85;44.49;;
66399;Laerm;54877;51.504;3.894;2024-02-23T03:51:48;38.13;34.57;60.33;;
66399;Laerm;54877;51.504;3.894;2024-02-23T03:54:13;36.32;34.42;47.45;;
66399;Laerm;54877;51.504;3.894;2024-02-23T03:56:41;36.23;34.59;53.72;;
66399;Laerm;54877;51.504;3.894;2024-02-23T03:59:08;36.03;34.25;40.49;;
66399;Laerm;54877;51.504;3.894;2024-02-23T04:01:39;36.20;34.53;44.96;;
66399;Laerm;54877;51.504;3.894;2024-02-23T04:04:05;36.53;34.36;46.53;;
66399;Laerm;54877;51.504;3.894;2024-02-23T04:06:31;36.28;34.37;41.57;;
66399;Laerm;54877;51.504;3.894;2024-02-23T04:08:56;36.86;34.62;54.18;;
66399;Laerm;54877;51.504;3.894;2024-02-23T04:11:22;37.15;34.58;51.62;;
66399;Laerm;54877;51.504;3.894;2024-02-23T04:13:47;36.79;34.45;49.98;;
66399;Laerm;54877;51.504;3.894;2024-02-23T04:16:12;37.73;34.58;57.08;;
66399;Laerm;54877;51.504;3.894;2024-02-23T04:18:38;37.39;34.54;47.95;;
66399;Laerm;54877;51.504;3.894;2024-02-23T04:21:03;37.82;34.77;59.14;;
66399;Laerm;54877;51.504;3.894;2024-02-23T04:23:29;39.47;34.24;55.16;;
66399;Laerm;54877;51.504;3.894;2024-02-23T04:25:54;45.42;34.61;64.50;;
66399;Laerm;54877;51.504;3.894;2024-02-23T04:28:19;36.43;34.36;41.73;;
66399;Laerm;54877;51.504;3.894;2024-02-23T04:30:44;36.69;34.81;41.40;;
66399;Laerm;54877;51.504;3.894;2024-02-23T04:33:10;36.64;34.68;42.27;;
66399;Laerm;54877;51.504;3.894;2024-02-23T04:35:35;37.51;34.76;49.20;;
66399;Laerm;54877;51.504;3.894;2024-02-23T04:38:01;37.29;34.57;54.21;;
66399;Laerm;54877;51.504;3.894;2024-02-23T04:40:27;36.17;34.42;47.44;;
66399;Laerm;54877;51.504;3.894;2024-02-23T04:42:52;37.45;34.92;46.21;;
66399;Laerm;54877;51.504;3.894;2024-02-23T04:45:18;38.29;35.08;50.25;;
66399;Laerm;54877;51.504;3.894;2024-02-23T04:47:43;37.04;34.70;49.76;;
66399;Laerm;54877;51.504;3.894;2024-02-23T04:50:09;36.77;34.72;42.87;;
66399;Laerm;54877;51.504;3.894;2024-02-23T04:52:35;37.14;34.91;48.33;;
66399;Laerm;54877;51.504;3.894;2024-02-23T04:55:00;38.43;35.01;50.27;;
66399;Laerm;54877;51.504;3.894;2024-02-23T04:57:26;38.13;35.02;55.54;;
66399;Laerm;54877;51.504;3.894;2024-02-23T04:59:51;38.18;34.93;51.44;;
66399;Laerm;54877;51.504;3.894;2024-02-23T05:02:17;39.38;35.38;57.09;;
66399;Laerm;54877;51.504;3.894;2024-02-23T05:04:42;38.15;35.25;46.98;;
66399;Laerm;54877;51.504;3.894;2024-02-23T05:07:07;39.20;34.99;52.84;;
66399;Laerm;54877;51.504;3.894;2024-02-23T05:09:33;39.84;35.20;55.18;;
66399;Laerm;54877;51.504;3.894;2024-02-23T05:12:00;50.84;35.09;76.79;;
66399;Laerm;54877;51.504;3.894;2024-02-23T05:14:26;40.75;35.23;60.58;;
66399;Laerm;54877;51.504;3.894;2024-02-23T05:16:51;38.77;34.99;49.72;;
66399;Laerm;54877;51.504;3.894;2024-02-23T05:19:17;38.88;35.31;56.89;;
66399;Laerm;54877;51.504;3.894;2024-02-23T05:21:42;44.71;34.84;64.22;;
66399;Laerm;54877;51.504;3.894;2024-02-23T05:24:07;38.23;34.98;55.10;;
66399;Laerm;54877;51.504;3.894;2024-02-23T05:26:33;38.83;35.07;56.45;;
66399;Laerm;54877;51.504;3.894;2024-02-23T05:28:58;37.29;35.01;51.15;;
66399;Laerm;54877;51.504;3.894;2024-02-23T05:31:43;40.15;35.51;53.56;;
66399;Laerm;54877;51.504;3.894;2024-02-23T05:34:09;37.84;34.95;44.39;;
66399;Laerm;54877;51.504;3.894;2024-02-23T05:36:34;37.98;35.29;55.39;;
66399;Laerm;54877;51.504;3.894;2024-02-23T05:38:59;38.28;35.41;53.71;;
66399;Laerm;54877;51.504;3.894;2024-02-23T05:41:25;40.77;35.36;60.36;;
66399;Laerm;54877;51.504;3.894;2024-02-23T05:43:50;37.79;35.31;54.40;;
66399;Laerm;54877;51.504;3.894;2024-02-23T05:46:15;48.20;35.33;67.55;;
66399;Laerm;54877;51.504;3.894;2024-02-23T05:48:41;45.99;35.14;63.80;;
66399;Laerm;54877;51.504;3.894;2024-02-23T05:51:06;40.23;35.68;54.62;;
66399;Laerm;54877;51.504;3.894;2024-02-23T05:53:31;39.18;35.53;48.14;;
66399;Laerm;54877;51.504;3.894;2024-02-23T05:55:58;41.00;35.84;59.31;;
66399;Laerm;54877;51.504;3.894;2024-02-23T05:58:23;44.20;35.71;59.91;;
66399;Laerm;54877;51.504;3.894;2024-02-23T06:00:49;39.55;35.67;54.26;;
66399;Laerm;54877;51.504;3.894;2024-02-23T06:03:15;43.44;35.83;56.93;;
66399;Laerm;54877;51.504;3.894;2024-02-23T06:05:40;40.79;35.47;53.50;;
66399;Laerm;54877;51.504;3.894;2024-02-23T06:08:06;39.23;35.59;51.27;;
66399;Laerm;54877;51.504;3.894;2024-02-23T06:10:31;38.46;35.84;52.52;;
66399;Laerm;54877;51.504;3.894;2024-02-23T06:12:56;40.99;35.67;57.10;;
66399;Laerm;54877;51.504;3.894;2024-02-23T06:15:22;46.23;35.26;66.24;;
66399;Laerm;54877;51.504;3.894;2024-02-23T06:17:47;37.98;35.51;48.42;;
66399;Laerm;54877;51.504;3.894;2024-02-23T06:20:13;48.31;35.60;65.62;;
66399;Laerm;54877;51.504;3.894;2024-02-23T06:22:38;48.92;35.96;68.40;;
66399;Laerm;54877;51.504;3.894;2024-02-23T06:25:04;38.69;36.01;50.43;;
66399;Laerm;54877;51.504;3.894;2024-02-23T06:27:30;38.25;35.21;53.52;;
66399;Laerm;54877;51.504;3.894;2024-02-23T06:29:55;47.15;35.61;66.34;;
66399;Laerm;54877;51.504;3.894;2024-02-23T06:32:20;40.54;36.26;57.51;;
66399;Laerm;54877;51.504;3.894;2024-02-23T06:34:46;39.75;36.62;50.31;;
66399;Laerm;54877;51.504;3.894;2024-02-23T06:37:11;50.67;35.75;67.01;;
66399;Laerm;54877;51.504;3.894;2024-02-23T06:39:37;48.43;35.89;69.01;;
66399;Laerm;54877;51.504;3.894;2024-02-23T06:42:02;38.88;36.07;45.41;;
66399;Laerm;54877;51.504;3.894;2024-02-23T06:44:29;48.37;36.37;68.06;;
66399;Laerm;54877;51.504;3.894;2024-02-23T06:46:55;40.50;36.11;62.32;;
66399;Laerm;54877;51.504;3.894;2024-02-23T06:49:20;49.92;36.48;69.02;;
66399;Laerm;54877;51.504;3.894;2024-02-23T06:51:45;54.76;36.95;71.55;;
66399;Laerm;54877;51.504;3.894;2024-02-23T06:54:10;49.15;36.56;68.51;;
66399;Laerm;54877;51.504;3.894;2024-02-23T06:56:36;43.48;35.92;63.01;;
66399;Laerm;54877;51.504;3.894;2024-02-23T06:59:02;49.74;36.48;73.70;;
66399;Laerm;54877;51.504;3.894;2024-02-23T07:01:28;50.82;37.08;67.33;;
66399;Laerm;54877;51.504;3.894;2024-02-23T07:03:53;41.59;36.14;66.13;;
66399;Laerm;54877;51.504;3.894;2024-02-23T07:06:19;45.33;36.23;64.52;;
66399;Laerm;54877;51.504;3.894;2024-02-23T07:08:44;42.74;36.42;62.10;;
66399;Laerm;54877;51.504;3.894;2024-02-23T07:11:10;40.81;36.63;60.87;;
66399;Laerm;54877;51.504;3.894;2024-02-23T07:13:36;45.36;36.88;63.01;;
66399;Laerm;54877;51.504;3.894;2024-02-23T07:16:01;41.76;36.12;56.56;;
66399;Laerm;54877;51.504;3.894;2024-02-23T07:18:27;49.71;36.93;68.15;;
66399;Laerm;54877;51.504;3.894;2024-02-23T07:20:52;53.23;37.27;68.75;;
66399;Laerm;54877;51.504;3.894;2024-02-23T07:23:17;49.02;36.55;66.17;;
66399;Laerm;54877;51.504;3.894;2024-02-23T07:25:43;53.83;37.93;70.00;;
66399;Laerm;54877;51.504;3.894;2024-02-23T07:28:08;53.15;37.57;71.87;;
66399;Laerm;54877;51.504;3.894;2024-02-23T07:30:33;45.02;37.58;64.07;;
66399;Laerm;54877;51.504;3.894;2024-02-23T07:33:00;41.44;37.21;58.84;;
66399;Laerm;54877;51.504;3.894;2024-02-23T07:35:25;44.86;37.15;60.33;;
66399;Laerm;54877;51.504;3.894;2024-02-23T07:37:51;48.14;40.72;70.00;;
66399;Laerm;54877;51.504;3.894;2024-02-23T07:40:16;51.82;40.56;66.31;;
66399;Laerm;54877;51.504;3.894;2024-02-23T07:42:41;49.93;40.21;68.45;;
66399;Laerm;54877;51.504;3.894;2024-02-23T07:45:07;44.93;39.94;57.78;;
66399;Laerm;54877;51.504;3.894;2024-02-23T07:47:34;45.56;40.45;59.96;;
66399;Laerm;54877;51.504;3.894;2024-02-23T07:49:59;48.70;39.90;64.66;;
66399;Laerm;54877;51.504;3.894;2024-02-23T07:52:25;46.03;40.18;58.63;;
66399;Laerm;54877;51.504;3.894;2024-02-23T07:54:52;51.35;41.30;69.10;;
66399;Laerm;54877;51.504;3.894;2024-02-23T07:57:18;49.34;39.99;66.31;;
66399;Laerm;54877;51.504;3.894;2024-02-23T07:59:44;44.59;39.58;59.21;;
66399;Laerm;54877;51.504;3.894;2024-02-23T08:02:09;42.68;39.90;51.37;;
66399;Laerm;54877;51.504;3.894;2024-02-23T08:04:34;47.47;40.51;65.58;;
66399;Laerm;54877;51.504;3.894;2024-02-23T08:07:00;51.60;36.68;65.49;;
66399;Laerm;54877;51.504;3.894;2024-02-23T08:09:25;42.83;36.98;67.18;;
66399;Laerm;54877;51.504;3.894;2024-02-23T08:11:50;46.87;36.30;63.43;;
66399;Laerm;54877;51.504;3.894;2024-02-23T08:14:16;40.50;36.74;52.36;;
66399;Laerm;54877;51.504;3.894;2024-02-23T08:16:41;40.94;36.62;54.80;;
66399;Laerm;54877;51.504;3.894;2024-02-23T08:19:07;39.76;36.36;52.84;;
66399;Laerm;54877;51.504;3.894;2024-02-23T08:21:33;44.75;36.18;63.20;;
66399;Laerm;54877;51.504;3.894;2024-02-23T08:23:58;40.46;36.45;54.22;;
66399;Laerm;54877;51.504;3.894;2024-02-23T08:26:24;38.81;36.51;46.73;;
66399;Laerm;54877;51.504;3.894;2024-02-23T08:28:49;40.82;36.53;53.62;;
66399;Laerm;54877;51.504;3.894;2024-02-23T08:31:14;40.87;36.38;54.64;;
66399;Laerm;54877;51.504;3.894;2024-02-23T08:33:41;41.47;36.50;58.80;;
66399;Laerm;54877;51.504;3.894;2024-02-23T08:36:07;45.99;36.63;62.88;;
66399;Laerm;54877;51.504;3.894;2024-02-23T08:38:32;41.91;36.46;64.14;;
66399;Laerm;54877;51.504;3.894;2024-02-23T08:40:58;44.62;36.22;68.38;;
66399;Laerm;54877;51.504;3.894;2024-02-23T08:43:24;43.59;36.33;68.92;;
66399;Laerm;54877;51.504;3.894;2024-02-23T08:45:49;40.11;36.25;57.50;;
66399;Laerm;54877;51.504;3.894;2024-02-23T08:48:14;44.43;37.08;64.58;;
66399;Laerm;54877;51.504;3.894;2024-02-23T08:50:40;45.37;37.24;59.48;;
66399;Laerm;54877;51.504;3.894;2024-02-23T08:53:05;42.99;36.61;59.03;;
66399;Laerm;54877;51.504;3.894;2024-02-23T08:55:31;50.34;36.86;67.87;;
66399;Laerm;54877;51.504;3.894;2024-02-23T08:57:58;47.67;36.64;69.19;;
66399;Laerm;54877;51.504;3.894;2024-02-23T09:00:23;46.14;37.07;64.45;;
66399;Laerm;54877;51.504;3.894;2024-02-23T09:02:49;41.39;36.63;57.70;;
66399;Laerm;54877;51.504;3.894;2024-02-23T09:05:15;47.66;36.35;67.07;;
66399;Laerm;54877;51.504;3.894;2024-02-23T09:07:40;43.90;36.39;67.22;;
66399;Laerm;54877;51.504;3.894;2024-02-23T09:10:06;40.48;36.55;50.24;;
66399;Laerm;54877;51.504;3.894;2024-02-23T09:12:31;43.42;36.82;59.29;;
66399;Laerm;54877;51.504;3.894;2024-02-23T09:14:57;48.44;37.33;66.05;;
66399;Laerm;54877;51.504;3.894;2024-02-23T09:17:22;51.64;38.09;68.48;;
66399;Laerm;54877;51.504;3.894;2024-02-23T09:19:48;46.01;37.88;61.31;;
66399;Laerm;54877;51.504;3.894;2024-02-23T09:22:14;50.35;37.41;64.75;;
66399;Laerm;54877;51.504;3.894;2024-02-23T09:24:39;41.52;36.70;52.47;;
66399;Laerm;54877;51.504;3.894;2024-02-23T09:27:05;44.96;36.75;65.69;;
66399;Laerm;54877;51.504;3.894;2024-02-23T09:29:32;43.98;36.52;65.61;;
66399;Laerm;54877;51.504;3.894;2024-02-23T09:31:57;47.78;37.29;63.89;;
66399;Laerm;54877;51.504;3.894;2024-02-23T09:34:24;41.02;35.93;59.14;;
66399;Laerm;54877;51.504;3.894;2024-02-23T09:36:49;39.70;36.14;55.81;;
66399;Laerm;54877;51.504;3.894;2024-02-23T09:39:15;47.90;36.11;66.04;;
66399;Laerm;54877;51.504;3.894;2024-02-23T09:41:42;40.70;36.75;57.74;;
66399;Laerm;54877;51.504;3.894;2024-02-23T09:44:08;45.88;36.42;63.84;;
66399;Laerm;54877;51.504;3.894;2024-02-23T09:46:36;50.11;36.98;72.88;;
66399;Laerm;54877;51.504;3.894;2024-02-23T09:49:02;44.06;36.21;61.46;;
66399;Laerm;54877;51.504;3.894;2024-02-23T09:51:29;52.93;36.38;69.56;;
66399;Laerm;54877;51.504;3.894;2024-02-23T09:53:56;39.00;35.66;54.17;;
66399;Laerm;54877;51.504;3.894;2024-02-23T09:56:27;47.89;35.92;67.42;;
66399;Laerm;54877;51.504;3.894;2024-02-23T09:58:52;44.06;36.08;69.36;;
66399;Laerm;54877;51.504;3.894;2024-02-23T10:01:27;40.51;36.11;65.18;;
66399;Laerm;54877;51.504;3.894;2024-02-23T10:03:56;41.87;35.84;62.55;;
66399;Laerm;54877;51.504;3.894;2024-02-23T10:06:22;41.95;36.05;62.14;;
66399;Laerm;54877;51.504;3.894;2024-02-23T10:08:47;46.77;36.13;65.01;;
66399;Laerm;54877;51.504;3.894;2024-02-23T10:11:13;50.51;36.03;68.63;;
66399;Laerm;54877;51.504;3.894;2024-02-23T10:13:38;45.61;36.82;60.81;;
66399;Laerm;54877;51.504;3.894;2024-02-23T10:16:05;43.16;36.66;63.02;;
66399;Laerm;54877;51.504;3.894;2024-02-23T10:18:30;38.70;36.01;51.77;;
66399;Laerm;54877;51.504;3.894;2024-02-23T10:20:55;40.92;36.85;60.36;;
66399;Laerm;54877;51.504;3.894;2024-02-23T10:23:22;39.26;35.70;52.38;;
66399;Laerm;54877;51.504;3.894;2024-02-23T10:25:48;49.95;35.83;69.00;;
66399;Laerm;54877;51.504;3.894;2024-02-23T10:28:14;45.20;36.39;62.61;;
66399;Laerm;54877;51.504;3.894;2024-02-23T10:30:39;40.85;36.23;56.14;;
66399;Laerm;54877;51.504;3.894;2024-02-23T10:33:05;40.80;37.03;53.97;;
66399;Laerm;54877;51.504;3.894;2024-02-23T10:35:32;47.36;36.82;65.18;;
66399;Laerm;54877;51.504;3.894;2024-02-23T10:37:57;40.94;36.19;58.59;;
66399;Laerm;54877;51.504;3.894;2024-02-23T10:40:24;42.46;36.51;59.22;;
66399;Laerm;54877;51.504;3.894;2024-02-23T10:42:56;51.79;35.83;69.30;;
66399;Laerm;54877;51.504;3.894;2024-02-23T10:45:22;43.45;36.84;68.53;;
66399;Laerm;54877;51.504;3.894;2024-02-23T10:47:48;42.88;36.65;59.69;;
66399;Laerm;54877;51.504;3.894;2024-02-23T10:50:14;45.64;36.36;68.60;;
66399;Laerm;54877;51.504;3.894;2024-02-23T10:52:42;46.54;36.91;67.43;;
66399;Laerm;54877;51.504;3.894;2024-02-23T10:55:12;41.87;36.70;60.37;;
66399;Laerm;54877;51.504;3.894;2024-02-23T10:57:38;45.12;36.26;63.25;;
66399;Laerm;54877;51.504;3.894;2024-02-23T11:00:08;46.69;35.52;66.66;;
66399;Laerm;54877;51.504;3.894;2024-02-23T11:02:43;43.01;37.34;56.66;;
66399;Laerm;54877;51.504;3.894;2024-02-23T11:05:10;46.39;36.82;62.34;;
66399;Laerm;54877;51.504;3.894;2024-02-23T11:07:40;44.77;36.92;59.36;;
66399;Laerm;54877;51.504;3.894;2024-02-23T11:10:06;48.32;39.09;58.57;;
66399;Laerm;54877;51.504;3.894;2024-02-23T11:12:36;48.09;38.80;62.85;;
66399;Laerm;54877;51.504;3.894;2024-02-23T11:15:02;50.42;38.52;66.97;;
66399;Laerm;54877;51.504;3.894;2024-02-23T11:17:33;49.09;38.91;63.21;;
66399;Laerm;54877;51.504;3.894;2024-02-23T11:20:03;47.84;37.82;64.44;;
66399;Laerm;54877;51.504;3.894;2024-02-23T11:22:33;44.39;36.77;68.19;;
66399;Laerm;54877;51.504;3.894;2024-02-23T11:25:07;43.00;36.43;59.74;;
66399;Laerm;54877;51.504;3.894;2024-02-23T11:27:37;39.99;35.92;60.00;;
66399;Laerm;54877;51.504;3.894;2024-02-23T11:30:09;42.43;35.95;63.20;;
66399;Laerm;54877;51.504;3.894;2024-02-23T11:32:47;43.04;36.17;63.63;;
66399;Laerm;54877;51.504;3.894;2024-02-23T11:35:16;49.34;36.41;71.56;;
66399;Laerm;54877;51.504;3.894;2024-02-23T11:37:47;45.70;37.15;70.77;;
66399;Laerm;54877;51.504;3.894;2024-02-23T11:40:13;46.93;36.80;62.55;;
66399;Laerm;54877;51.504;3.894;2024-02-23T11:42:41;44.96;36.65;63.94;;
66399;Laerm;54877;51.504;3.894;2024-02-23T11:45:07;46.75;37.13;69.06;;
66399;Laerm;54877;51.504;3.894;2024-02-23T11:47:32;40.17;35.61;56.71;;
66399;Laerm;54877;51.504;3.894;2024-02-23T11:49:57;50.58;36.36;65.81;;
66399;Laerm;54877;51.504;3.894;2024-02-23T11:52:23;50.20;36.23;66.51;;
66399;Laerm;54877;51.504;3.894;2024-02-23T11:54:48;44.42;36.72;62.49;;
66399;Laerm;54877;51.504;3.894;2024-02-23T11:57:14;52.09;36.56;71.88;;
66399;Laerm;54877;51.504;3.894;2024-02-23T11:59:40;44.22;36.80;63.28;;
66399;Laerm;54877;51.504;3.894;2024-02-23T12:02:06;41.26;36.20;65.06;;
66399;Laerm;54877;51.504;3.894;2024-02-23T12:04:32;52.24;37.13;71.23;;
66399;Laerm;54877;51.504;3.894;2024-02-23T12:06:58;52.99;36.69;71.03;;
66399;Laerm;54877;51.504;3.894;2024-02-23T12:09:23;43.00;37.33;60.31;;
66399;Laerm;54877;51.504;3.894;2024-02-23T12:11:49;47.35;37.35;71.89;;
66399;Laerm;54877;51.504;3.894;2024-02-23T12:14:15;44.91;37.60;63.35;;
66399;Laerm;54877;51.504;3.894;2024-02-23T12:16:40;51.96;36.79;68.31;;
66399;Laerm;54877;51.504;3.894;2024-02-23T12:19:08;47.03;36.14;64.79;;
66399;Laerm;54877;51.504;3.894;2024-02-23T12:21:34;49.57;36.58;64.85;;
66399;Laerm;54877;51.504;3.894;2024-02-23T12:24:04;47.58;37.01;73.91;;
66399;Laerm;54877;51.504;3.894;2024-02-23T12:26:29;43.78;36.49;62.22;;
66399;Laerm;54877;51.504;3.894;2024-02-23T12:29:00;52.53;36.48;71.95;;
66399;Laerm;54877;51.504;3.894;2024-02-23T12:31:26;45.01;36.34;59.76;;
66399;Laerm;54877;51.504;3.894;2024-02-23T12:33:51;53.54;36.80;67.09;;
66399;Laerm;54877;51.504;3.894;2024-02-23T12:36:17;51.71;36.95;70.88;;
66399;Laerm;54877;51.504;3.894;2024-02-23T12:38:42;43.75;36.43;64.81;;
66399;Laerm;54877;51.504;3.894;2024-02-23T12:41:08;39.92;36.04;52.95;;
66399;Laerm;54877;51.504;3.894;2024-02-23T12:43:33;47.90;37.53;66.02;;
66399;Laerm;54877;51.504;3.894;2024-02-23T12:45:58;56.10;36.28;71.03;;
66399;Laerm;54877;51.504;3.894;2024-02-23T12:48:24;45.25;36.48;66.70;;
66399;Laerm;54877;51.504;3.894;2024-02-23T12:50:50;50.31;36.82;69.57;;
66399;Laerm;54877;51.504;3.894;2024-02-23T12:53:37;54.93;36.69;73.09;;
66399;Laerm;54877;51.504;3.894;2024-02-23T12:56:04;51.98;36.44;70.66;;
66399;Laerm;54877;51.504;3.894;2024-02-23T12:58:31;56.45;36.51;72.58;;
66399;Laerm;54877;51.504;3.894;2024-02-23T13:00:56;51.19;36.45;70.25;;
66399;Laerm;54877;51.504;3.894;2024-02-23T13:03:23;53.68;35.34;70.76;;
66399;Laerm;54877;51.504;3.894;2024-02-23T13:05:48;57.08;36.56;70.81;;
66399;Laerm;54877;51.504;3.894;2024-02-23T13:08:14;51.90;36.69;68.19;;
66399;Laerm;54877;51.504;3.894;2024-02-23T13:10:39;52.95;37.62;69.58;;
66399;Laerm;54877;51.504;3.894;2024-02-23T13:13:05;54.42;37.90;71.33;;
66399;Laerm;54877;51.504;3.894;2024-02-23T13:15:31;45.95;36.98;60.90;;
66399;Laerm;54877;51.504;3.894;2024-02-23T13:17:56;49.67;36.91;71.99;;
66399;Laerm;54877;51.504;3.894;2024-02-23T13:20:22;55.56;36.85;72.80;;
66399;Laerm;54877;51.504;3.894;2024-02-23T13:22:47;43.60;37.03;64.81;;
66399;Laerm;54877;51.504;3.894;2024-02-23T13:25:12;42.80;36.59;61.54;;
66399;Laerm;54877;51.504;3.894;2024-02-23T13:27:38;42.84;36.21;63.76;;
66399;Laerm;54877;51.504;3.894;2024-02-23T13:30:03;47.66;36.51;64.99;;
66399;Laerm;54877;51.504;3.894;2024-02-23T13:32:29;52.75;37.42;70.34;;
66399;Laerm;54877;51.504;3.894;2024-02-23T13:34:54;47.46;36.72;68.65;;
66399;Laerm;54877;51.504;3.894;2024-02-23T13:37:19;55.24;37.03;73.64;;
66399;Laerm;54877;51.504;3.894;2024-02-23T13:39:45;48.29;36.52;79.94;;
66399;Laerm;54877;51.504;3.894;2024-02-23T13:42:10;46.52;36.76;62.63;;